createdAt,value
2023-03-07T00:00:09.540Z,98505.97
2023-03-07T00:01:43.003Z,98501.69
2023-03-07T00:03:18.366Z,98511.19
2023-03-07T00:04:51.552Z,98495.53
2023-03-07T00:06:24.615Z,98496.47
2023-03-07T00:07:59.321Z,98499.09
2023-03-07T00:09:32.469Z,98499.09
2023-03-07T00:11:07.585Z,98497.38
2023-03-07T00:12:41.034Z,98500.91
2023-03-07T00:14:14.158Z,98495.69
2023-03-07T00:15:46.319Z,98499.16
2023-03-07T00:17:19.505Z,98490.47
2023-03-07T00:18:53.175Z,98502.63
2023-03-07T00:20:25.413Z,98495.69
2023-03-07T00:21:58.549Z,98491.31
2023-03-07T00:23:33.296Z,98494.78
2023-03-07T00:25:06.183Z,98488.66
2023-03-07T00:26:39.870Z,98500.75
2023-03-07T00:28:12.250Z,98487.63
2023-03-07T00:29:45.469Z,98486.75
2023-03-07T00:31:19.642Z,98485.94
2023-03-07T00:32:53.011Z,98482.50
2023-03-07T00:34:26.265Z,98478.22
2023-03-07T00:36:00.126Z,98480.00
2023-03-07T00:37:33.839Z,98475.59
2023-03-07T00:39:08.468Z,98474.69
2023-03-07T00:40:40.776Z,98467.78
2023-03-07T00:42:13.872Z,98468.69
2023-03-07T00:43:47.592Z,98468.66
2023-03-07T00:45:20.687Z,98453.91
2023-03-07T00:46:54.048Z,98469.56
2023-03-07T00:48:27.228Z,98466.22
2023-03-07T00:50:01.326Z,98462.16
2023-03-07T00:51:34.444Z,98465.94
2023-03-07T00:53:06.603Z,98468.75
2023-03-07T00:54:41.165Z,98460.16
2023-03-07T00:56:16.882Z,98458.56
2023-03-07T00:57:50.861Z,98463.72
2023-03-07T00:59:24.075Z,98458.53
2023-03-07T01:00:58.048Z,98455.91
2023-03-07T01:02:32.481Z,98464.72
2023-03-07T01:04:05.885Z,98457.78
2023-03-07T01:05:39.454Z,98449.09
2023-03-07T01:07:12.909Z,98461.25
2023-03-07T01:08:46.805Z,98453.38
2023-03-07T01:10:22.788Z,98451.63
2023-03-07T01:11:55.996Z,98448.22
2023-03-07T01:13:28.674Z,98448.41
2023-03-07T01:15:05.614Z,98446.78
2023-03-07T01:16:40.169Z,98455.50
2023-03-07T01:18:13.620Z,98446.75
2023-03-07T01:19:46.800Z,98441.59
2023-03-07T01:21:22.250Z,98439.88
2023-03-07T01:22:56.224Z,98450.22
2023-03-07T01:24:28.746Z,98442.31
2023-03-07T01:26:03.933Z,98442.28
2023-03-07T01:27:37.967Z,98438.78
2023-03-07T01:29:13.188Z,98435.28
2023-03-07T01:30:45.569Z,98443.06
2023-03-07T01:32:18.800Z,98437.03
2023-03-07T01:33:54.184Z,98431.09
2023-03-07T01:35:28.315Z,98432.84
2023-03-07T01:37:03.545Z,98427.63
2023-03-07T01:38:35.771Z,98425.88
2023-03-07T01:40:14.143Z,98412.91
2023-03-07T01:41:49.189Z,98421.63
2023-03-07T01:43:27.390Z,98419.97
2023-03-07T01:45:29.833Z,98415.66
2023-03-07T01:47:03.745Z,98415.72
2023-03-07T01:48:42.668Z,98414.06
2023-03-07T01:50:18.914Z,98410.66
2023-03-07T01:51:58.326Z,98414.22
2023-03-07T01:53:30.731Z,98404.72
2023-03-07T01:55:08.337Z,98407.28
2023-03-07T01:56:42.656Z,98403.91
2023-03-07T01:58:17.539Z,98410.84
2023-03-07T01:59:55.699Z,98416.06
2023-03-07T02:01:28.747Z,98407.34
2023-03-07T02:03:09.500Z,98410.84
2023-03-07T02:04:50.980Z,98406.53
2023-03-07T02:06:25.134Z,98406.44
2023-03-07T02:08:02.230Z,98402.13
2023-03-07T02:09:39.232Z,98402.06
2023-03-07T02:11:12.153Z,98405.59
2023-03-07T02:12:45.927Z,98413.28
2023-03-07T02:14:20.392Z,98417.59
2023-03-07T02:15:54.133Z,98410.63
2023-03-07T02:17:28.420Z,98402.84
2023-03-07T02:19:01.498Z,98406.31
2023-03-07T02:20:43.988Z,98410.56
2023-03-07T02:22:20.095Z,98405.31
2023-03-07T02:23:59.483Z,98405.16
2023-03-07T02:25:37.401Z,98402.47
2023-03-07T02:27:12.291Z,98401.44
2023-03-07T02:28:48.603Z,98406.63
2023-03-07T02:30:22.814Z,98404.78
2023-03-07T02:31:58.652Z,98404.56
2023-03-07T02:33:32.052Z,98409.72
2023-03-07T02:35:15.501Z,98407.94
2023-03-07T02:36:51.349Z,98407.97
2023-03-07T02:38:27.989Z,98401.25
2023-03-07T02:40:06.916Z,98406.53
2023-03-07T02:41:40.814Z,98412.69
2023-03-07T02:43:24.690Z,98410.19
2023-03-07T02:44:59.776Z,98408.72
2023-03-07T02:46:34.842Z,98403.69
2023-03-07T02:48:08.222Z,98404.63
2023-03-07T02:49:41.733Z,98397.66
2023-03-07T02:51:14.273Z,98403.69
2023-03-07T02:52:51.158Z,98393.22
2023-03-07T02:54:25.086Z,98400.09
2023-03-07T02:55:58.561Z,98397.59
2023-03-07T02:57:32.225Z,98398.56
2023-03-07T02:59:07.471Z,98389.88
2023-03-07T03:00:40.781Z,98398.53
2023-03-07T03:02:14.291Z,98407.09
2023-03-07T03:03:47.554Z,98403.53
2023-03-07T03:05:21.367Z,98408.72
2023-03-07T03:06:54.577Z,98401.78
2023-03-07T03:08:27.870Z,98410.44
2023-03-07T03:10:01.290Z,98408.66
2023-03-07T03:11:36.561Z,98415.59
2023-03-07T03:13:09.932Z,98403.41
2023-03-07T03:14:44.145Z,98395.56
2023-03-07T03:16:18.464Z,98405.22
2023-03-07T03:17:54.567Z,98402.72
2023-03-07T03:19:29.668Z,98412.22
2023-03-07T03:21:09.202Z,98409.53
2023-03-07T03:22:43.154Z,98402.50
2023-03-07T03:24:17.521Z,98411.19
2023-03-07T03:25:59.184Z,98404.16
2023-03-07T03:27:33.698Z,98406.63
2023-03-07T03:29:07.496Z,98402.28
2023-03-07T03:30:41.520Z,98413.34
2023-03-07T03:32:14.780Z,98418.47
2023-03-07T03:33:52.459Z,98412.38
2023-03-07T03:35:24.641Z,98414.22
2023-03-07T03:37:00.394Z,98404.88
2023-03-07T03:38:34.562Z,98396.25
2023-03-07T03:40:14.875Z,98404.72
2023-03-07T03:41:49.682Z,98414.19
2023-03-07T03:43:23.566Z,98421.84
2023-03-07T03:44:56.741Z,98421.84
2023-03-07T03:46:31.574Z,98431.28
2023-03-07T03:48:05.322Z,98426.88
2023-03-07T03:49:38.588Z,98423.38
2023-03-07T03:51:14.549Z,98424.09
2023-03-07T03:52:46.846Z,98411.72
2023-03-07T03:54:20.064Z,98411.66
2023-03-07T03:55:53.316Z,98423.94
2023-03-07T03:57:26.491Z,98417.84
2023-03-07T03:59:00.011Z,98410.91
2023-03-07T04:00:33.205Z,98410.88
2023-03-07T04:02:08.124Z,98409.13
2023-03-07T04:03:42.562Z,98419.69
2023-03-07T04:05:15.939Z,98412.72
2023-03-07T04:06:49.562Z,98404.16
2023-03-07T04:08:22.517Z,98426.63
2023-03-07T04:09:55.956Z,98422.34
2023-03-07T04:11:29.989Z,98426.84
2023-03-07T04:13:03.194Z,98426.84
2023-03-07T04:14:35.527Z,98430.41
2023-03-07T04:16:09.120Z,98434.06
2023-03-07T04:17:43.890Z,98432.34
2023-03-07T04:19:16.186Z,98420.22
2023-03-07T04:20:51.102Z,98422.81
2023-03-07T04:22:24.336Z,98427.16
2023-03-07T04:23:58.630Z,98425.41
2023-03-07T04:25:35.864Z,98425.34
2023-03-07T04:27:09.274Z,98428.84
2023-03-07T04:28:49.235Z,98417.69
2023-03-07T04:30:37.957Z,98426.25
2023-03-07T04:32:11.565Z,98431.53
2023-03-07T04:33:45.843Z,98438.47
2023-03-07T04:35:19.166Z,98428.91
2023-03-07T04:36:52.464Z,98429.75
2023-03-07T04:38:24.970Z,98426.16
2023-03-07T04:39:58.047Z,98421.66
2023-03-07T04:41:31.281Z,98431.19
2023-03-07T04:43:09.253Z,98431.97
2023-03-07T04:44:42.610Z,98433.72
2023-03-07T04:46:16.245Z,98428.53
2023-03-07T04:47:49.458Z,98430.41
2023-03-07T04:49:24.334Z,98432.88
2023-03-07T04:50:56.725Z,98423.38
2023-03-07T04:52:30.216Z,98433.72
2023-03-07T04:54:02.450Z,98423.19
2023-03-07T04:55:35.969Z,98430.94
2023-03-07T04:57:09.520Z,98436.88
2023-03-07T04:58:43.249Z,98426.44
2023-03-07T05:00:16.442Z,98436.00
2023-03-07T05:01:49.909Z,98435.97
2023-03-07T05:03:24.348Z,98436.81
2023-03-07T05:04:58.904Z,98429.81
2023-03-07T05:06:32.330Z,98426.25
2023-03-07T05:08:05.376Z,98431.41
2023-03-07T05:09:39.229Z,98426.97
2023-03-07T05:11:12.354Z,98429.56
2023-03-07T05:12:45.543Z,98433.00
2023-03-07T05:14:19.366Z,98436.44
2023-03-07T05:15:53.603Z,98431.16
2023-03-07T05:17:28.001Z,98436.31
2023-03-07T05:19:02.932Z,98436.16
2023-03-07T05:20:39.431Z,98442.97
2023-03-07T05:22:12.834Z,98432.44
2023-03-07T05:23:49.073Z,98435.06
2023-03-07T05:25:23.334Z,98428.94
2023-03-07T05:26:57.042Z,98439.25
2023-03-07T05:28:30.625Z,98443.53
2023-03-07T05:30:04.006Z,98446.06
2023-03-07T05:31:37.213Z,98452.81
2023-03-07T05:33:13.003Z,98436.09
2023-03-07T05:34:47.120Z,98442.13
2023-03-07T05:36:22.792Z,98446.59
2023-03-07T05:37:55.166Z,98456.53
2023-03-07T05:39:28.842Z,98449.72
2023-03-07T05:41:01.769Z,98445.41
2023-03-07T05:42:35.096Z,98452.31
2023-03-07T05:44:08.715Z,98452.34
2023-03-07T05:45:41.994Z,98451.53
2023-03-07T05:47:15.430Z,98453.22
2023-03-07T05:48:48.781Z,98458.44
2023-03-07T05:50:21.136Z,98458.22
2023-03-07T05:51:56.312Z,98455.53
2023-03-07T05:53:29.700Z,98461.47
2023-03-07T05:55:01.881Z,98456.22
2023-03-07T05:56:35.096Z,98453.47
2023-03-07T05:58:08.568Z,98455.00
2023-03-07T05:59:41.992Z,98453.16
2023-03-07T06:01:15.281Z,98450.44
2023-03-07T06:02:48.583Z,98453.88
2023-03-07T06:04:22.643Z,98460.84
2023-03-07T06:05:56.163Z,98465.09
2023-03-07T06:07:30.761Z,98468.53
2023-03-07T06:09:05.746Z,98460.66
2023-03-07T06:10:40.424Z,98466.69
2023-03-07T06:12:16.188Z,98458.97
2023-03-07T06:13:49.330Z,98470.94
2023-03-07T06:15:24.882Z,98481.97
2023-03-07T06:17:04.471Z,98479.13
2023-03-07T06:18:38.720Z,98478.00
2023-03-07T06:20:13.029Z,98476.19
2023-03-07T06:21:46.338Z,98464.84
2023-03-07T06:23:21.028Z,98478.72
2023-03-07T06:24:55.144Z,98480.44
2023-03-07T06:26:28.423Z,98478.81
2023-03-07T06:28:02.199Z,98477.81
2023-03-07T06:29:38.061Z,98482.94
2023-03-07T06:31:12.459Z,98480.38
2023-03-07T06:32:45.793Z,98481.06
2023-03-07T06:34:19.326Z,98481.78
2023-03-07T06:35:53.954Z,98488.47
2023-03-07T06:37:27.436Z,98477.69
2023-03-07T06:39:04.874Z,98480.72
2023-03-07T06:40:38.603Z,98473.38
2023-03-07T06:42:11.017Z,98483.69
2023-03-07T06:43:44.334Z,98485.59
2023-03-07T06:45:17.585Z,98478.63
2023-03-07T06:46:50.729Z,98480.44
2023-03-07T06:48:29.569Z,98493.19
2023-03-07T06:50:03.769Z,98474.47
2023-03-07T06:51:38.785Z,98484.41
2023-03-07T06:53:13.583Z,98477.16
2023-03-07T06:54:48.540Z,98473.28
2023-03-07T06:56:22.116Z,98468.94
2023-03-07T06:57:55.346Z,98471.56
2023-03-07T06:59:28.636Z,98483.31
2023-03-07T07:01:02.133Z,98482.91
2023-03-07T07:02:37.145Z,98487.38
2023-03-07T07:04:12.067Z,98486.19
2023-03-07T07:05:47.015Z,98479.09
2023-03-07T07:07:21.023Z,98492.78
2023-03-07T07:08:56.540Z,98492.53
2023-03-07T07:10:33.444Z,98486.91
2023-03-07T07:12:07.494Z,98487.34
2023-03-07T07:13:41.742Z,98488.72
2023-03-07T07:15:16.976Z,98488.41
2023-03-07T07:16:50.350Z,98480.88
2023-03-07T07:18:23.554Z,98478.59
2023-03-07T07:19:57.134Z,98480.91
2023-03-07T07:21:30.607Z,98476.88
2023-03-07T07:23:03.705Z,98482.34
2023-03-07T07:24:37.061Z,98471.13
2023-03-07T07:26:12.490Z,98484.28
2023-03-07T07:27:45.944Z,98469.03
2023-03-07T07:29:19.165Z,98475.91
2023-03-07T07:30:53.710Z,98476.72
2023-03-07T07:32:27.371Z,98469.72
2023-03-07T07:34:00.940Z,98468.84
2023-03-07T07:35:36.321Z,98471.63
2023-03-07T07:37:09.660Z,98469.59
2023-03-07T07:38:42.866Z,98479.19
2023-03-07T07:40:16.447Z,98468.94
2023-03-07T07:41:53.471Z,98470.06
2023-03-07T07:43:30.117Z,98471.97
2023-03-07T07:45:35.991Z,98465.34
2023-03-07T07:47:11.229Z,98462.44
2023-03-07T07:48:44.373Z,98457.81
2023-03-07T07:50:18.257Z,98450.72
2023-03-07T07:51:51.951Z,98454.81
2023-03-07T07:53:25.378Z,98459.22
2023-03-07T07:54:58.541Z,98454.25
2023-03-07T07:56:32.774Z,98456.19
2023-03-07T07:58:07.322Z,98452.34
2023-03-07T07:59:40.562Z,98460.50
2023-03-07T08:01:16.056Z,98453.66
2023-03-07T08:02:50.700Z,98453.66
2023-03-07T08:04:24.249Z,98458.31
2023-03-07T08:05:57.426Z,98459.09
2023-03-07T08:07:30.593Z,98461.34
2023-03-07T08:09:05.537Z,98457.59
2023-03-07T08:10:43.141Z,98456.78
2023-03-07T08:12:16.321Z,98448.56
2023-03-07T08:13:51.023Z,98453.44
2023-03-07T08:15:24.261Z,98448.66
2023-03-07T08:16:57.898Z,98447.50
2023-03-07T08:18:31.071Z,98442.69
2023-03-07T08:20:08.609Z,98443.75
2023-03-07T08:21:41.794Z,98452.72
2023-03-07T08:23:15.347Z,98442.03
2023-03-07T08:24:50.263Z,98444.72
2023-03-07T08:26:24.429Z,98438.41
2023-03-07T08:27:58.272Z,98445.22
2023-03-07T08:29:33.313Z,98446.19
2023-03-07T08:31:11.053Z,98445.69
2023-03-07T08:32:44.298Z,98441.91
2023-03-07T08:34:17.459Z,98444.34
2023-03-07T08:35:51.148Z,98443.25
2023-03-07T08:37:24.303Z,98442.16
2023-03-07T08:38:57.501Z,98443.72
2023-03-07T08:40:31.981Z,98439.81
2023-03-07T08:42:05.817Z,98431.28
2023-03-07T08:43:40.271Z,98441.19
2023-03-07T08:45:15.324Z,98437.25
2023-03-07T08:46:48.467Z,98429.19
2023-03-07T08:48:21.914Z,98427.97
2023-03-07T08:49:55.064Z,98422.19
2023-03-07T08:51:28.780Z,98418.63
2023-03-07T08:53:01.905Z,98421.47
2023-03-07T08:54:35.404Z,98416.63
2023-03-07T08:56:09.219Z,98416.84
2023-03-07T08:57:42.761Z,98417.84
2023-03-07T08:59:16.162Z,98419.41
2023-03-07T09:00:50.828Z,98420.19
2023-03-07T09:02:23.962Z,98422.47
2023-03-07T09:03:57.526Z,98420.16
2023-03-07T09:05:31.150Z,98411.66
2023-03-07T09:07:05.093Z,98409.91
2023-03-07T09:08:38.223Z,98405.94
2023-03-07T09:10:12.709Z,98405.63
2023-03-07T09:11:45.892Z,98409.78
2023-03-07T09:13:19.123Z,98409.66
2023-03-07T09:14:54.968Z,98405.72
2023-03-07T09:16:29.628Z,98395.22
2023-03-07T09:18:02.829Z,98398.66
2023-03-07T09:19:36.580Z,98394.31
2023-03-07T09:21:09.790Z,98387.69
2023-03-07T09:22:43.179Z,98382.56
2023-03-07T09:24:16.287Z,98392.16
2023-03-07T09:25:49.566Z,98382.69
2023-03-07T09:27:23.028Z,98390.50
2023-03-07T09:28:56.419Z,98379.63
2023-03-07T09:30:29.610Z,98381.56
2023-03-07T09:32:05.666Z,98384.09
2023-03-07T09:33:38.884Z,98377.69
2023-03-07T09:35:12.386Z,98375.97
2023-03-07T09:36:45.805Z,98367.28
2023-03-07T09:38:19.110Z,98362.44
2023-03-07T09:39:52.203Z,98366.41
2023-03-07T09:41:43.877Z,98368.66
2023-03-07T09:43:21.007Z,98362.09
2023-03-07T09:45:22.314Z,98368.34
2023-03-07T09:47:55.127Z,98361.94
2023-03-07T09:49:33.548Z,98365.31
2023-03-07T09:51:16.780Z,98358.84
2023-03-07T09:52:52.486Z,98357.78
2023-03-07T09:54:31.368Z,98357.25
2023-03-07T09:56:09.504Z,98350.41
2023-03-07T09:57:50.554Z,98351.97
2023-03-07T09:59:31.905Z,98348.91
2023-03-07T10:01:08.258Z,98339.63
2023-03-07T10:02:49.477Z,98343.56
2023-03-07T10:04:29.221Z,98340.97
2023-03-07T10:06:10.381Z,98343.22
2023-03-07T10:07:43.493Z,98341.22
2023-03-07T10:09:21.989Z,98326.66
2023-03-07T10:11:05.204Z,98332.25
2023-03-07T10:12:57.389Z,98330.06
2023-03-07T10:14:47.702Z,98329.28
2023-03-07T10:16:28.527Z,98314.28
2023-03-07T10:18:16.367Z,98314.16
2023-03-07T10:19:52.348Z,98314.41
2023-03-07T10:21:34.215Z,98304.28
2023-03-07T10:23:25.180Z,98310.72
2023-03-07T10:25:10.330Z,98300.19
2023-03-07T10:26:50.710Z,98303.88
2023-03-07T10:28:26.851Z,98303.50
2023-03-07T10:30:02.624Z,98302.13
2023-03-07T10:31:40.824Z,98295.03
2023-03-07T10:33:19.576Z,98295.34
2023-03-07T10:34:58.129Z,98290.16
2023-03-07T10:36:40.705Z,98286.78
2023-03-07T10:38:22.363Z,98291.09
2023-03-07T10:39:57.390Z,98283.25
2023-03-07T10:41:30.937Z,98283.13
2023-03-07T10:43:06.056Z,98286.97
2023-03-07T10:44:39.952Z,98284.47
2023-03-07T10:46:26.875Z,98280.13
2023-03-07T10:48:06.790Z,98276.56
2023-03-07T10:49:46.569Z,98280.81
2023-03-07T10:51:34.633Z,98270.69
2023-03-07T10:53:23.075Z,98273.78
2023-03-07T10:54:58.037Z,98265.91
2023-03-07T10:56:31.269Z,98268.47
2023-03-07T10:58:24.875Z,98260.56
2023-03-07T11:00:15.220Z,98261.97
2023-03-07T11:01:56.370Z,98253.94
2023-03-07T11:03:46.007Z,98257.59
2023-03-07T11:05:32.474Z,98261.97
2023-03-07T11:07:05.741Z,98254.44
2023-03-07T11:08:38.844Z,98259.75
2023-03-07T11:10:28.672Z,98248.50
2023-03-07T11:12:13.792Z,98251.34
2023-03-07T11:14:07.026Z,98245.81
2023-03-07T11:15:40.317Z,98239.94
2023-03-07T11:17:21.360Z,98239.13
2023-03-07T11:18:54.595Z,98235.19
2023-03-07T11:20:30.954Z,98232.91
2023-03-07T11:22:06.211Z,98234.88
2023-03-07T11:23:39.479Z,98233.78
2023-03-07T11:25:26.945Z,98237.13
2023-03-07T11:27:01.081Z,98227.28
2023-03-07T11:28:35.909Z,98226.69
2023-03-07T11:30:29.267Z,98224.75
2023-03-07T11:32:14.217Z,98215.81
2023-03-07T11:34:00.002Z,98218.00
2023-03-07T11:35:51.440Z,98214.84
2023-03-07T11:37:35.517Z,98217.53
2023-03-07T11:39:18.753Z,98214.63
2023-03-07T11:40:58.048Z,98214.63
2023-03-07T11:42:35.899Z,98218.41
2023-03-07T11:44:30.557Z,98209.19
2023-03-07T11:46:10.405Z,98208.34
2023-03-07T11:47:54.149Z,98209.78
2023-03-07T11:49:44.441Z,98213.03
2023-03-07T11:51:38.796Z,98205.28
2023-03-07T11:53:43.176Z,98197.78
2023-03-07T11:55:26.706Z,98197.59
2023-03-07T11:57:12.303Z,98197.59
2023-03-07T11:59:24.194Z,98196.47
2023-03-07T12:01:10.255Z,98200.53
2023-03-07T12:03:06.991Z,98199.56
2023-03-07T12:04:54.882Z,98185.47
2023-03-07T12:06:37.460Z,98191.94
2023-03-07T12:08:30.687Z,98172.19
2023-03-07T12:10:14.974Z,98185.16
2023-03-07T12:12:00.688Z,98185.00
2023-03-07T12:13:44.811Z,98183.59
2023-03-07T12:15:32.425Z,98180.09
2023-03-07T12:17:18.874Z,98185.16
2023-03-07T12:19:08.656Z,98174.28
2023-03-07T12:20:52.461Z,98179.78
2023-03-07T12:22:30.201Z,98183.44
2023-03-07T12:24:08.183Z,98174.88
2023-03-07T12:25:44.789Z,98168.50
2023-03-07T12:27:26.792Z,98177.84
2023-03-07T12:29:05.157Z,98185.75
2023-03-07T12:30:50.759Z,98176.00
2023-03-07T12:32:27.901Z,98172.19
2023-03-07T12:34:06.859Z,98169.94
2023-03-07T12:35:45.560Z,98166.56
2023-03-07T12:37:24.801Z,98167.53
2023-03-07T12:39:04.267Z,98162.00
2023-03-07T12:40:42.922Z,98161.16
2023-03-07T12:42:31.429Z,98165.81
2023-03-07T12:44:08.709Z,98167.66
2023-03-07T12:45:46.850Z,98161.16
2023-03-07T12:47:28.509Z,98160.88
2023-03-07T12:49:11.152Z,98157.50
2023-03-07T12:50:53.923Z,98160.88
2023-03-07T12:52:38.055Z,98156.03
2023-03-07T12:54:20.058Z,98148.72
2023-03-07T12:55:58.468Z,98149.84
2023-03-07T12:57:36.021Z,98146.19
2023-03-07T12:59:13.504Z,98149.88
2023-03-07T13:00:51.392Z,98149.72
2023-03-07T13:02:29.909Z,98150.72
2023-03-07T13:04:09.152Z,98153.97
2023-03-07T13:05:45.196Z,98151.13
2023-03-07T13:07:24.028Z,98150.00
2023-03-07T13:09:01.621Z,98145.31
2023-03-07T13:10:36.317Z,98157.44
2023-03-07T13:12:32.170Z,98163.66
2023-03-07T13:14:06.676Z,98150.09
2023-03-07T13:16:12.810Z,98156.63
2023-03-07T13:18:02.189Z,98158.16
2023-03-07T13:19:59.986Z,98151.25
2023-03-07T13:21:34.261Z,98155.75
2023-03-07T13:23:29.626Z,98163.09
2023-03-07T13:25:38.715Z,98157.16
2023-03-07T13:27:17.920Z,98154.34
2023-03-07T13:28:52.478Z,98156.91
2023-03-07T13:30:26.850Z,98161.13
2023-03-07T13:32:00.141Z,98156.50
2023-03-07T13:33:32.403Z,98157.75
2023-03-07T13:35:10.191Z,98160.31
2023-03-07T13:36:42.429Z,98156.91
2023-03-07T13:38:44.230Z,98162.84
2023-03-07T13:40:50.904Z,98159.59
2023-03-07T13:42:49.512Z,98146.78
2023-03-07T13:44:30.532Z,98151.28
2023-03-07T13:46:04.922Z,98148.72
2023-03-07T13:47:43.025Z,98155.63
2023-03-07T13:49:46.280Z,98148.44
2023-03-07T13:51:19.576Z,98146.19
2023-03-07T13:52:52.893Z,98146.03
2023-03-07T13:54:26.008Z,98150.66
2023-03-07T13:56:03.468Z,98146.88
2023-03-07T13:57:42.187Z,98144.88
2023-03-07T13:59:24.608Z,98158.84
2023-03-07T14:01:01.885Z,98150.13
2023-03-07T14:02:35.176Z,98147.97
2023-03-07T14:04:16.063Z,98151.25
2023-03-07T14:05:49.652Z,98161.13
2023-03-07T14:07:25.869Z,98149.56
2023-03-07T14:09:02.702Z,98158.56
2023-03-07T14:10:47.999Z,98138.25
2023-03-07T14:12:31.308Z,98150.66
2023-03-07T14:14:39.021Z,98151.69
2023-03-07T14:16:25.857Z,98142.81
2023-03-07T14:18:16.335Z,98135.19
2023-03-07T14:20:00.144Z,98141.94
2023-03-07T14:21:46.018Z,98142.22
2023-03-07T14:23:34.994Z,98144.22
2023-03-07T14:25:17.078Z,98138.72
2023-03-07T14:26:52.106Z,98139.69
2023-03-07T14:28:28.016Z,98134.03
2023-03-07T14:30:02.603Z,98139.69
2023-03-07T14:31:40.107Z,98135.72
2023-03-07T14:33:19.171Z,98140.94
2023-03-07T14:34:53.280Z,98144.50
2023-03-07T14:36:30.355Z,98139.41
2023-03-07T14:38:06.804Z,98135.72
2023-03-07T14:39:50.002Z,98147.28
2023-03-07T14:41:39.372Z,98144.09
2023-03-07T14:43:30.063Z,98148.72
2023-03-07T14:45:19.060Z,98144.44
2023-03-07T14:47:02.818Z,98146.94
2023-03-07T14:49:03.197Z,98147.38
2023-03-07T14:50:40.151Z,98140.72
2023-03-07T14:52:29.627Z,98148.03
2023-03-07T14:54:09.089Z,98144.19
2023-03-07T14:55:45.902Z,98135.44
2023-03-07T14:57:24.931Z,98128.94
2023-03-07T14:59:01.521Z,98143.56
2023-03-07T15:00:36.335Z,98138.47
2023-03-07T15:02:19.247Z,98133.63
2023-03-07T15:03:54.058Z,98134.88
2023-03-07T15:05:29.108Z,98136.09
2023-03-07T15:07:04.603Z,98139.28
2023-03-07T15:08:38.845Z,98133.50
2023-03-07T15:10:15.694Z,98137.69
2023-03-07T15:11:53.741Z,98135.66
2023-03-07T15:13:33.113Z,98134.63
2023-03-07T15:15:07.626Z,98135.56
2023-03-07T15:16:47.904Z,98139.50
2023-03-07T15:18:25.695Z,98137.69
2023-03-07T15:20:02.936Z,98125.66
2023-03-07T15:21:40.087Z,98135.38
2023-03-07T15:23:21.774Z,98142.09
2023-03-07T15:24:55.118Z,98134.72
2023-03-07T15:26:28.855Z,98143.00
2023-03-07T15:28:04.529Z,98140.47
2023-03-07T15:29:39.307Z,98137.91
2023-03-07T15:31:14.228Z,98131.84
2023-03-07T15:32:49.013Z,98136.47
2023-03-07T15:34:26.641Z,98134.16
2023-03-07T15:36:18.375Z,98137.94
2023-03-07T15:37:54.483Z,98135.81
2023-03-07T15:39:34.829Z,98138.63
2023-03-07T15:41:25.818Z,98136.06
2023-03-07T15:43:02.243Z,98132.91
2023-03-07T15:44:38.267Z,98133.88
2023-03-07T15:46:19.092Z,98137.78
2023-03-07T15:47:53.911Z,98134.34
2023-03-07T15:49:35.133Z,98137.41
2023-03-07T15:51:15.949Z,98139.47
2023-03-07T15:52:53.977Z,98130.75
2023-03-07T15:54:38.672Z,98131.59
2023-03-07T15:56:25.901Z,98131.69
2023-03-07T15:58:01.947Z,98130.75
2023-03-07T15:59:38.453Z,98127.34
2023-03-07T16:01:21.128Z,98121.53
2023-03-07T16:03:26.075Z,98126.13
2023-03-07T16:05:00.058Z,98130.28
2023-03-07T16:06:40.446Z,98134.31
2023-03-07T16:08:15.391Z,98128.63
2023-03-07T16:09:48.587Z,98124.97
2023-03-07T16:11:21.707Z,98141.00
2023-03-07T16:12:54.915Z,98139.56
2023-03-07T16:14:31.320Z,98134.72
2023-03-07T16:16:09.468Z,98129.88
2023-03-07T16:17:43.536Z,98134.22
2023-03-07T16:19:18.217Z,98129.41
2023-03-07T16:20:51.380Z,98142.22
2023-03-07T16:22:25.094Z,98142.97
2023-03-07T16:23:58.231Z,98147.06
2023-03-07T16:25:32.975Z,98139.63
2023-03-07T16:27:06.176Z,98141.22
2023-03-07T16:28:41.471Z,98140.69
2023-03-07T16:30:18.324Z,98145.75
2023-03-07T16:31:51.547Z,98145.06
2023-03-07T16:33:24.738Z,98142.94
2023-03-07T16:34:59.512Z,98139.56
2023-03-07T16:36:32.700Z,98146.94
2023-03-07T16:38:06.094Z,98144.13
2023-03-07T16:39:39.216Z,98158.25
2023-03-07T16:41:17.364Z,98150.22
2023-03-07T16:42:51.670Z,98150.66
2023-03-07T16:44:25.103Z,98162.00
2023-03-07T16:45:58.778Z,98169.66
2023-03-07T16:47:32.347Z,98168.44
2023-03-07T16:49:05.499Z,98159.06
2023-03-07T16:50:40.195Z,98166.41
2023-03-07T16:52:14.550Z,98166.63
2023-03-07T16:53:49.351Z,98167.81
2023-03-07T16:55:23.511Z,98162.81
2023-03-07T16:56:58.340Z,98163.28
2023-03-07T16:58:35.035Z,98163.59
2023-03-07T17:00:13.773Z,98163.81
2023-03-07T17:01:49.202Z,98165.22
2023-03-07T17:03:22.790Z,98159.81
2023-03-07T17:04:56.061Z,98174.09
2023-03-07T17:06:39.219Z,98160.47
2023-03-07T17:08:12.715Z,98172.81
2023-03-07T17:09:45.896Z,98171.03
2023-03-07T17:11:21.147Z,98180.38
2023-03-07T17:12:56.134Z,98173.06
2023-03-07T17:14:29.753Z,98171.44
2023-03-07T17:16:02.943Z,98168.66
2023-03-07T17:17:37.575Z,98177.25
2023-03-07T17:19:23.371Z,98173.63
2023-03-07T17:20:56.515Z,98174.66
2023-03-07T17:22:31.019Z,98169.56
2023-03-07T17:24:04.264Z,98174.31
2023-03-07T17:25:37.817Z,98174.84
2023-03-07T17:27:11.142Z,98174.06
2023-03-07T17:28:44.864Z,98188.34
2023-03-07T17:30:21.664Z,98183.75
2023-03-07T17:31:55.121Z,98188.44
2023-03-07T17:33:28.223Z,98190.31
2023-03-07T17:35:01.384Z,98190.34
2023-03-07T17:36:34.808Z,98193.22
2023-03-07T17:38:09.983Z,98192.84
2023-03-07T17:39:43.940Z,98194.72
2023-03-07T17:41:17.716Z,98193.94
2023-03-07T17:42:54.778Z,98199.94
2023-03-07T17:44:29.050Z,98200.78
2023-03-07T17:46:02.325Z,98199.25
2023-03-07T17:47:35.606Z,98212.81
2023-03-07T17:49:08.728Z,98207.59
2023-03-07T17:50:42.258Z,98209.78
2023-03-07T17:52:15.357Z,98207.94
2023-03-07T17:53:49.940Z,98213.06
2023-03-07T17:55:25.484Z,98209.00
2023-03-07T17:56:59.371Z,98210.25
2023-03-07T17:58:32.432Z,98211.59
2023-03-07T18:00:12.036Z,98207.03
2023-03-07T18:01:45.925Z,98211.78
2023-03-07T18:03:19.455Z,98216.13
2023-03-07T18:04:52.653Z,98216.31
2023-03-07T18:06:26.686Z,98208.84
2023-03-07T18:07:59.853Z,98220.09
2023-03-07T18:09:35.378Z,98213.28
2023-03-07T18:11:10.429Z,98217.66
2023-03-07T18:12:44.708Z,98224.34
2023-03-07T18:14:18.199Z,98230.50
2023-03-07T18:15:51.538Z,98228.63
2023-03-07T18:17:24.687Z,98234.09
2023-03-07T18:19:00.704Z,98241.88
2023-03-07T18:20:34.601Z,98244.44
2023-03-07T18:22:08.364Z,98242.59
2023-03-07T18:23:43.045Z,98239.97
2023-03-07T18:25:19.085Z,98247.63
2023-03-07T18:26:52.502Z,98247.56
2023-03-07T18:28:26.496Z,98240.72
2023-03-07T18:29:59.900Z,98246.91
2023-03-07T18:31:34.964Z,98244.34
2023-03-07T18:33:08.217Z,98226.69
2023-03-07T18:34:41.478Z,98238.44
2023-03-07T18:36:16.821Z,98234.84
2023-03-07T18:37:50.053Z,98238.00
2023-03-07T18:39:24.654Z,98226.59
2023-03-07T18:41:06.690Z,98235.31
2023-03-07T18:42:40.325Z,98234.50
2023-03-07T18:44:13.610Z,98236.56
2023-03-07T18:45:48.146Z,98245.63
2023-03-07T18:47:21.299Z,98242.19
2023-03-07T18:48:54.967Z,98242.88
2023-03-07T18:50:28.251Z,98249.19
2023-03-07T18:52:01.632Z,98251.06
2023-03-07T18:53:36.107Z,98260.78
2023-03-07T18:55:10.143Z,98253.94
2023-03-07T18:56:46.973Z,98261.81
2023-03-07T18:58:20.430Z,98265.53